Time;durP1;ratioP1;P1;durP2;ratioP2;P2;SDS_P1;SDS_P2;PMS_P1;PMS_P2;Temp;Humidity;BMP_temperature;BMP_pressure;BME280_temperature;BME280_humidity;BME280_pressure;Samples;Min_cycle;Max_cycle;Signal;HPM_P1;HPM_P2
2021/01/02 00:00:04;;;;;;;24.80;18.63;;;0.80;99.90;;;;;;5068449;28;20695;-73
2021/01/02 00:03:02;;;;;;;26.10;19.13;;;0.60;99.90;;;;;;5067856;28;20434;-73
2021/01/02 00:05:43;;;;;;;27.60;20.10;;;0.60;99.90;;;;;;5040330;28;20443;-73
2021/01/02 00:08:15;;;;;;;22.67;18.20;;;0.70;99.90;;;;;;5068516;28;20528;-73
2021/01/02 00:10:50;;;;;;;22.67;18.30;;;0.70;99.90;;;;;;5068250;28;20449;-73
2021/01/02 00:13:31;;;;;;;25.50;18.40;;;0.80;99.90;;;;;;5067933;28;20208;-73
2021/01/02 00:16:20;;;;;;;25.10;19.00;;;0.80;99.90;;;;;;5067354;28;20442;-74
2021/01/02 00:19:02;;;;;;;20.30;16.63;;;0.80;99.90;;;;;;5067928;28;20446;-72
2021/01/02 00:21:34;;;;;;;24.53;17.30;;;0.80;99.90;;;;;;5063457;28;20913;-73
2021/01/02 00:24:38;;;;;;;21.57;17.20;;;0.80;99.90;;;;;;5068176;28;20439;-73
2021/01/02 00:27:10;;;;;;;20.87;16.33;;;0.80;99.90;;;;;;5067334;28;20462;-74
2021/01/02 00:30:12;;;;;;;22.73;16.57;;;0.80;99.90;;;;;;5067965;28;20478;-73
2021/01/02 00:32:46;;;;;;;17.90;15.20;;;0.80;99.90;;;;;;5052826;28;20935;-74
2021/01/02 00:35:18;;;;;;;19.90;16.47;;;0.80;99.90;;;;;;5056019;28;20878;-74
2021/01/02 00:37:49;;;;;;;20.27;15.37;;;0.80;99.90;;;;;;5057245;28;21202;-73
2021/01/02 00:40:17;;;;;;;18.10;15.27;;;0.90;99.90;;;;;;5056972;28;20437;-73
2021/01/02 00:42:45;;;;;;;19.63;16.00;;;0.80;99.90;;;;;;5067348;28;20861;-73
2021/01/02 00:45:13;;;;;;;20.80;15.20;;;0.90;99.90;;;;;;5072392;28;20459;-73
2021/01/02 00:47:41;;;;;;;19.00;14.27;;;0.80;99.90;;;;;;5066696;28;20458;-73
2021/01/02 00:50:09;;;;;;;22.50;16.37;;;0.70;99.90;;;;;;5072399;28;20435;-73
2021/01/02 00:53:18;;;;;;;21.47;17.50;;;0.70;99.90;;;;;;5062097;28;20501;-73
2021/01/02 00:56:06;;;;;;;20.70;14.77;;;0.80;99.90;;;;;;5065538;28;20534;-74
2021/01/02 00:59:06;;;;;;;21.77;16.17;;;0.70;99.90;;;;;;5072628;28;20475;-74
2021/01/02 01:01:40;;;;;;;21.70;16.33;;;0.90;99.90;;;;;;5059033;28;20435;-75
2021/01/02 01:04:32;;;;;;;24.43;17.60;;;1.00;99.90;;;;;;5072867;28;20470;-75
2021/01/02 01:07:01;;;;;;;24.37;17.90;;;0.90;99.90;;;;;;5072363;28;20447;-74
2021/01/02 01:09:27;;;;;;;22.77;18.33;;;1.00;99.90;;;;;;5069107;28;20478;-74
2021/01/02 01:11:56;;;;;;;23.97;15.83;;;1.00;99.90;;;;;;5072418;28;20799;-74
2021/01/02 01:14:23;;;;;;;26.00;18.10;;;1.10;99.90;;;;;;5068708;28;20864;-73
2021/01/02 01:16:55;;;;;;;23.07;17.97;;;1.20;99.90;;;;;;5069048;28;20486;-74
2021/01/02 01:19:28;;;;;;;21.90;16.87;;;1.30;99.90;;;;;;5072483;28;20918;-74
2021/01/02 01:21:58;;;;;;;23.37;16.53;;;1.30;99.90;;;;;;5072756;28;20439;-74
2021/01/02 01:24:39;;;;;;;21.97;16.77;;;1.40;99.90;;;;;;5065469;28;20572;-74
2021/01/02 01:27:15;;;;;;;21.07;15.10;;;1.40;99.90;;;;;;5072370;28;20497;-74
2021/01/02 01:29:57;;;;;;;20.73;15.60;;;1.40;99.90;;;;;;5072301;28;20529;-73
2021/01/02 01:32:25;;;;;;;21.80;15.60;;;1.40;99.90;;;;;;5065672;28;20435;-74
2021/01/02 01:34:56;;;;;;;19.93;15.50;;;1.40;99.90;;;;;;5071017;28;20485;-74
2021/01/02 01:37:27;;;;;;;20.40;15.33;;;1.40;99.90;;;;;;5071992;28;20508;-73
2021/01/02 01:39:54;;;;;;;19.63;15.60;;;1.30;99.90;;;;;;5066980;28;20544;-74
2021/01/02 01:42:41;;;;;;;21.50;15.03;;;1.30;99.90;;;;;;5065712;28;20435;-73
2021/01/02 01:45:48;;;;;;;18.93;14.50;;;1.40;99.90;;;;;;5065805;28;20435;-73
2021/01/02 01:48:25;;;;;;;24.00;15.60;;;1.40;99.90;;;;;;5036041;28;20483;-73
2021/01/02 01:51:04;;;;;;;22.37;16.27;;;1.40;99.90;;;;;;5058463;28;20479;-74
2021/01/02 01:54:00;;;;;;;22.10;15.83;;;1.40;99.90;;;;;;5066090;28;20447;-74
2021/01/02 01:56:31;;;;;;;20.13;15.20;;;1.30;99.90;;;;;;5064207;28;20478;-74
2021/01/02 01:59:24;;;;;;;24.07;15.73;;;1.30;99.90;;;;;;5077350;28;21006;-74
2021/01/02 02:01:55;;;;;;;22.80;15.63;;;1.20;99.90;;;;;;5072131;28;20450;-74
2021/01/02 02:05:01;;;;;;;21.30;15.70;;;1.20;99.90;;;;;;5072014;28;20428;-74
2021/01/02 02:07:46;;;;;;;22.50;15.10;;;1.20;99.90;;;;;;5071775;28;20498;-74
2021/01/02 02:10:16;;;;;;;20.17;15.03;;;1.30;99.90;;;;;;5071796;28;20431;-74
2021/01/02 02:12:51;;;;;;;23.07;16.13;;;1.30;99.90;;;;;;5071837;28;20431;-73
2021/01/02 02:15:22;;;;;;;23.07;17.20;;;1.30;99.90;;;;;;5071738;28;20496;-74
2021/01/02 02:17:52;;;;;;;22.87;14.93;;;1.30;99.90;;;;;;5070834;28;20494;-74
2021/01/02 02:20:22;;;;;;;20.27;14.90;;;1.30;99.90;;;;;;5071473;28;20449;-74
2021/01/02 02:23:01;;;;;;;20.20;15.20;;;1.10;99.90;;;;;;5071111;28;20435;-74
2021/01/02 02:25:46;;;;;;;25.30;15.60;;;1.10;99.90;;;;;;5071270;28;20946;-74
2021/01/02 02:28:44;;;;;;;21.97;15.67;;;0.90;99.90;;;;;;5071232;28;20468;-74
2021/01/02 02:31:16;;;;;;;24.30;15.90;;;0.80;99.90;;;;;;5071674;28;20809;-74
2021/01/02 02:33:53;;;;;;;21.43;15.00;;;0.70;99.90;;;;;;5071625;28;20466;-74
2021/01/02 02:36:20;;;;;;;23.57;14.40;;;0.60;99.90;;;;;;5070978;28;20455;-74
2021/01/02 02:38:47;;;;;;;23.23;15.67;;;0.60;99.90;;;;;;5071174;28;20973;-74
2021/01/02 02:41:16;;;;;;;24.83;16.70;;;0.60;99.90;;;;;;5071084;28;20530;-74
2021/01/02 02:43:46;;;;;;;22.70;15.50;;;0.50;99.90;;;;;;5071419;28;20436;-74
2021/01/02 02:46:14;;;;;;;26.13;16.23;;;0.60;99.90;;;;;;5071165;28;20451;-74
2021/01/02 02:48:43;;;;;;;23.03;17.40;;;0.70;99.90;;;;;;5071063;28;20461;-73
2021/01/02 02:51:11;;;;;;;19.07;15.37;;;0.70;99.90;;;;;;5071243;28;20729;-74
2021/01/02 02:53:38;;;;;;;22.00;16.83;;;0.80;99.90;;;;;;5070729;28;20461;-74
2021/01/02 02:56:05;;;;;;;25.07;17.40;;;0.80;99.90;;;;;;5070547;28;20527;-75
2021/01/02 02:58:32;;;;;;;21.00;15.13;;;0.80;99.90;;;;;;5070665;28;20505;-74
2021/01/02 03:00:58;;;;;;;21.53;14.80;;;0.70;99.90;;;;;;5070492;28;20439;-73
2021/01/02 03:03:28;;;;;;;22.70;16.50;;;0.80;99.90;;;;;;5070517;28;20439;-74
2021/01/02 03:05:54;;;;;;;24.20;16.93;;;0.80;99.90;;;;;;5070437;28;20831;-74
2021/01/02 03:08:21;;;;;;;21.57;15.00;;;0.80;99.90;;;;;;5070433;28;20464;-74
2021/01/02 03:10:48;;;;;;;22.10;15.60;;;0.80;99.90;;;;;;5070629;28;20435;-75
2021/01/02 03:13:14;;;;;;;24.50;16.97;;;0.80;99.90;;;;;;5070384;28;20431;-73
2021/01/02 03:15:42;;;;;;;22.60;15.43;;;0.90;99.90;;;;;;5070263;28;20432;-74
2021/01/02 03:18:10;;;;;;;23.03;16.40;;;1.00;99.90;;;;;;5069713;28;20813;-74
2021/01/02 03:20:37;;;;;;;20.23;14.50;;;1.00;99.90;;;;;;5070043;28;20466;-74
2021/01/02 03:23:05;;;;;;;20.90;15.27;;;0.90;99.90;;;;;;5070544;28;20868;-74
2021/01/02 03:25:31;;;;;;;21.50;16.70;;;0.90;99.90;;;;;;5070425;28;20461;-73
2021/01/02 03:27:58;;;;;;;24.13;16.10;;;0.80;99.90;;;;;;5069929;28;20459;-75
2021/01/02 03:30:26;;;;;;;22.20;15.00;;;0.80;99.90;;;;;;5070177;28;20435;-74
2021/01/02 03:32:53;;;;;;;20.27;15.10;;;0.80;99.90;;;;;;5070123;28;20691;-74
2021/01/02 03:35:20;;;;;;;26.50;17.17;;;0.80;99.90;;;;;;5069882;28;20930;-74
2021/01/02 03:37:48;;;;;;;24.23;16.00;;;0.80;99.90;;;;;;5069514;28;20528;-74
2021/01/02 03:40:17;;;;;;;26.10;16.70;;;0.80;99.90;;;;;;5070592;28;20941;-75
2021/01/02 03:42:44;;;;;;;23.07;15.33;;;0.80;99.90;;;;;;5069946;28;20435;-74
2021/01/02 03:45:12;;;;;;;22.03;16.40;;;0.70;99.90;;;;;;5069792;28;20432;-74
2021/01/02 03:47:39;;;;;;;20.50;15.57;;;0.80;99.90;;;;;;5069546;28;20737;-74
2021/01/02 03:50:07;;;;;;;22.50;15.63;;;0.90;99.90;;;;;;5069910;28;20945;-75
2021/01/02 03:52:36;;;;;;;23.23;16.10;;;0.80;99.90;;;;;;5069898;28;20462;-74
2021/01/02 03:55:06;;;;;;;24.63;15.57;;;0.90;99.90;;;;;;5069904;28;20458;-74
2021/01/02 03:57:33;;;;;;;27.57;17.60;;;0.80;99.90;;;;;;5069307;28;20486;-74
2021/01/02 04:00:00;;;;;;;23.10;15.60;;;0.70;99.90;;;;;;5070387;28;20454;-74
2021/01/02 04:02:27;;;;;;;26.27;15.03;;;0.70;99.90;;;;;;5070109;28;20432;-73
2021/01/02 04:04:54;;;;;;;23.03;15.97;;;0.70;99.90;;;;;;5070301;28;20427;-74
2021/01/02 04:07:20;;;;;;;21.30;15.43;;;0.70;99.90;;;;;;5069167;28;20459;-74
2021/01/02 04:09:47;;;;;;;23.40;15.33;;;0.70;99.90;;;;;;5069228;28;20427;-73
2021/01/02 04:12:14;;;;;;;21.57;15.10;;;0.80;99.90;;;;;;5068687;28;20500;-73
2021/01/02 04:14:41;;;;;;;20.20;15.03;;;0.90;99.90;;;;;;5070340;28;20504;-74
2021/01/02 04:17:07;;;;;;;23.23;16.43;;;0.90;99.90;;;;;;5069353;28;20849;-73
2021/01/02 04:19:34;;;;;;;19.60;14.30;;;0.90;99.90;;;;;;5069688;28;20717;-73
2021/01/02 04:22:01;;;;;;;22.70;14.40;;;1.00;99.90;;;;;;5069842;28;20451;-74
2021/01/02 04:24:28;;;;;;;21.47;15.30;;;1.00;99.90;;;;;;5069485;28;20435;-73
2021/01/02 04:26:59;;;;;;;21.27;14.80;;;1.10;99.90;;;;;;5069102;28;20457;-73
2021/01/02 04:29:26;;;;;;;22.87;15.87;;;1.10;99.90;;;;;;5069510;28;20802;-73
2021/01/02 04:31:55;;;;;;;22.13;14.53;;;1.10;99.90;;;;;;5069253;28;20428;-73
2021/01/02 04:34:23;;;;;;;20.90;13.67;;;1.10;99.90;;;;;;5069030;28;20432;-73
2021/01/02 04:36:49;;;;;;;23.73;15.63;;;1.20;99.90;;;;;;5068700;28;21040;-73
2021/01/02 04:39:16;;;;;;;24.87;16.40;;;1.20;99.90;;;;;;5069311;28;20501;-73
2021/01/02 04:41:43;;;;;;;30.03;17.80;;;1.30;99.90;;;;;;5069346;28;20446;-73
2021/01/02 04:44:09;;;;;;;29.43;17.47;;;1.30;99.90;;;;;;5070288;28;20465;-73
2021/01/02 04:46:37;;;;;;;35.27;19.80;;;1.30;99.90;;;;;;5069919;28;20459;-73
2021/01/02 04:49:04;;;;;;;32.13;18.47;;;1.20;99.90;;;;;;5072777;28;20694;-72
2021/01/02 04:51:31;;;;;;;31.67;18.93;;;1.20;99.90;;;;;;5075752;28;20737;-73
2021/01/02 04:54:02;;;;;;;36.50;22.88;;;1.20;99.90;;;;;;5068273;28;20430;-74
2021/01/02 04:56:32;;;;;;;36.47;21.37;;;1.20;99.90;;;;;;5068988;28;20648;-74
2021/01/02 04:59:01;;;;;;;29.00;18.43;;;1.20;99.90;;;;;;5068803;28;20509;-73
2021/01/02 05:01:29;;;;;;;29.97;18.60;;;1.20;99.90;;;;;;5068758;28;21032;-72
2021/01/02 05:03:56;;;;;;;28.40;17.67;;;1.30;99.90;;;;;;5068427;28;20447;-74
2021/01/02 05:06:23;;;;;;;25.97;15.87;;;1.40;99.90;;;;;;5068250;28;20438;-72
2021/01/02 05:08:52;;;;;;;27.57;16.87;;;1.30;99.90;;;;;;5068180;28;20431;-72
2021/01/02 05:11:19;;;;;;;25.23;15.87;;;1.20;99.90;;;;;;5068968;28;20464;-73
2021/01/02 05:13:47;;;;;;;29.63;16.83;;;1.20;99.90;;;;;;5068937;28;20488;-72
2021/01/02 05:16:20;;;;;;;30.13;16.00;;;1.20;99.90;;;;;;5068217;28;20438;-73
2021/01/02 05:18:54;;;;;;;27.57;16.73;;;1.10;99.90;;;;;;5068912;28;20477;-72
2021/01/02 05:21:22;;;;;;;27.80;17.20;;;1.00;99.90;;;;;;5068588;28;20439;-72
2021/01/02 05:24:16;;;;;;;29.83;18.10;;;1.00;99.90;;;;;;5070237;28;20785;-72
2021/01/02 05:26:44;;;;;;;34.47;17.87;;;1.10;99.90;;;;;;5024743;28;20474;-72
2021/01/02 05:29:16;;;;;;;30.83;17.30;;;1.10;99.90;;;;;;5072062;28;20957;-72
2021/01/02 05:31:44;;;;;;;31.77;16.90;;;1.10;99.90;;;;;;5072189;28;20423;-73
2021/01/02 05:34:11;;;;;;;30.03;17.07;;;1.10;99.90;;;;;;5071836;28;20428;-73
2021/01/02 05:36:40;;;;;;;37.93;18.27;;;1.10;99.90;;;;;;5071500;28;20460;-74
2021/01/02 05:39:07;;;;;;;27.33;16.50;;;1.20;99.90;;;;;;5071729;28;20479;-73
2021/01/02 05:41:53;;;;;;;37.50;18.87;;;1.20;99.90;;;;;;5071700;28;20432;-73
2021/01/02 05:44:20;;;;;;;35.27;18.40;;;1.20;99.90;;;;;;5071051;28;20443;-74
2021/01/02 05:46:50;;;;;;;36.67;20.10;;;1.10;99.90;;;;;;5071222;28;20462;-74
2021/01/02 05:49:34;;;;;;;31.93;17.70;;;1.10;99.90;;;;;;5071662;28;20826;-74
2021/01/02 05:52:03;;;;;;;33.63;17.80;;;1.10;99.90;;;;;;5071967;28;20427;-74
2021/01/02 05:54:31;;;;;;;36.70;19.73;;;1.10;99.90;;;;;;5071675;28;20438;-74
2021/01/02 05:57:00;;;;;;;37.00;19.67;;;1.10;99.90;;;;;;5071000;28;20843;-73
2021/01/02 05:59:31;;;;;;;37.37;20.90;;;1.20;99.90;;;;;;5071420;28;20470;-74
2021/01/02 06:01:59;;;;;;;43.63;19.17;;;1.20;99.90;;;;;;5071439;28;20432;-73
2021/01/02 06:04:25;;;;;;;47.90;21.70;;;1.20;99.90;;;;;;5071563;28;20580;-74
2021/01/02 06:07:09;;;;;;;47.63;23.47;;;1.30;99.90;;;;;;5071148;28;20454;-74
2021/01/02 06:09:36;;;;;;;43.03;22.30;;;1.30;99.90;;;;;;5071606;28;20440;-74
2021/01/02 06:12:05;;;;;;;44.00;21.17;;;1.30;99.90;;;;;;5071247;28;20442;-74
2021/01/02 06:14:34;;;;;;;47.63;20.23;;;1.30;99.90;;;;;;5071555;28;20531;-74
2021/01/02 06:17:07;;;;;;;51.70;21.17;;;1.30;99.90;;;;;;5070909;28;20825;-74
2021/01/02 06:19:34;;;;;;;65.37;22.03;;;1.20;99.90;;;;;;5071479;28;20569;-74
2021/01/02 06:22:01;;;;;;;52.73;22.60;;;1.10;99.90;;;;;;5071210;28;20431;-74
2021/01/02 06:24:28;;;;;;;60.30;21.20;;;1.10;99.90;;;;;;5070916;28;21000;-74
2021/01/02 06:26:57;;;;;;;56.47;22.07;;;1.00;99.90;;;;;;5071143;28;20470;-73
2021/01/02 06:29:24;;;;;;;54.93;22.30;;;1.00;99.90;;;;;;5071526;28;20440;-74
2021/01/02 06:31:50;;;;;;;65.13;24.20;;;1.00;99.90;;;;;;5071002;28;20443;-73
2021/01/02 06:34:17;;;;;;;82.13;23.53;;;0.90;99.90;;;;;;5070912;28;20427;-73
2021/01/02 06:36:43;;;;;;;50.37;22.10;;;0.90;99.90;;;;;;5070015;28;20889;-74
2021/01/02 06:39:20;;;;;;;48.90;23.10;;;0.90;99.90;;;;;;5070539;28;20486;-73
2021/01/02 06:41:48;;;;;;;49.83;25.50;;;0.90;99.90;;;;;;5071259;28;20432;-73
2021/01/02 06:44:43;;;;;;;53.70;23.43;;;0.90;99.90;;;;;;5070495;28;20439;-74
2021/01/02 06:47:15;;;;;;;43.00;19.80;;;1.00;99.90;;;;;;5070443;28;20505;-74
2021/01/02 06:49:43;;;;;;;35.97;19.43;;;0.90;99.90;;;;;;5070412;28;20431;-73
2021/01/02 06:52:10;;;;;;;41.50;17.90;;;1.10;99.90;;;;;;5070391;28;20435;-74
2021/01/02 06:54:39;;;;;;;36.97;18.50;;;1.10;99.90;;;;;;5070325;28;20809;-74
2021/01/02 06:57:07;;;;;;;38.93;21.60;;;1.10;99.90;;;;;;5069924;28;20484;-74
2021/01/02 06:59:33;;;;;;;32.73;17.93;;;1.10;99.90;;;;;;5070087;28;20830;-74
2021/01/02 07:02:00;;;;;;;38.87;20.00;;;1.10;99.90;;;;;;5070631;28;20439;-74
2021/01/02 07:04:37;;;;;;;45.20;20.83;;;1.10;99.90;;;;;;5071471;28;20435;-73
2021/01/02 07:07:04;;;;;;;41.37;20.80;;;1.20;99.90;;;;;;5070695;28;20673;-74
2021/01/02 07:09:31;;;;;;;47.57;20.70;;;1.20;99.90;;;;;;5070117;28;20813;-74
2021/01/02 07:12:10;;;;;;;43.47;20.27;;;1.20;99.90;;;;;;5069820;28;20910;-74
2021/01/02 07:14:37;;;;;;;45.37;21.83;;;1.20;99.90;;;;;;5070159;28;20431;-73
2021/01/02 07:17:05;;;;;;;44.97;21.40;;;1.30;99.90;;;;;;5070225;28;20455;-74
2021/01/02 07:19:46;;;;;;;49.73;23.27;;;1.30;99.90;;;;;;5070007;28;20436;-74
2021/01/02 07:22:24;;;;;;;33.97;19.93;;;1.40;99.90;;;;;;5069898;28;20514;-74
2021/01/02 07:24:52;;;;;;;35.87;17.93;;;1.40;99.90;;;;;;5069671;28;20965;-74
2021/01/02 07:27:21;;;;;;;31.60;17.53;;;1.40;99.90;;;;;;5069276;28;20459;-74
2021/01/02 07:29:49;;;;;;;28.43;15.47;;;1.50;99.90;;;;;;5069392;28;20436;-74
2021/01/02 07:32:17;;;;;;;31.33;16.97;;;1.50;99.90;;;;;;5069796;28;20459;-74
2021/01/02 07:34:46;;;;;;;26.90;15.20;;;1.60;99.90;;;;;;5069544;28;20885;-74
2021/01/02 07:37:14;;;;;;;29.23;17.53;;;1.60;99.90;;;;;;5069144;28;20451;-74
2021/01/02 07:39:41;;;;;;;33.57;18.83;;;1.70;99.90;;;;;;5069688;28;20436;-74
2021/01/02 07:42:11;;;;;;;31.53;16.53;;;1.60;99.90;;;;;;5069560;28;20435;-74
2021/01/02 07:44:40;;;;;;;26.30;14.77;;;1.60;99.90;;;;;;5069346;28;20439;-74
2021/01/02 07:47:07;;;;;;;28.10;17.90;;;1.70;99.90;;;;;;5068241;28;20455;-74
2021/01/02 07:49:34;;;;;;;26.67;17.47;;;1.70;99.90;;;;;;5069638;28;20798;-74
2021/01/02 07:52:00;;;;;;;32.37;17.57;;;1.70;99.90;;;;;;5069181;28;20432;-74
2021/01/02 07:54:35;;;;;;;29.10;15.80;;;1.70;99.90;;;;;;5069064;28;20432;-74
2021/01/02 07:57:04;;;;;;;26.73;15.50;;;1.60;99.90;;;;;;5068901;28;20454;-74
2021/01/02 07:59:32;;;;;;;28.30;16.33;;;1.50;99.90;;;;;;5069348;28;20505;-74
2021/01/02 08:02:01;;;;;;;33.00;19.27;;;1.50;99.90;;;;;;5069161;28;20436;-74
2021/01/02 08:04:28;;;;;;;28.37;16.63;;;1.50;99.90;;;;;;5069201;28;20438;-74
2021/01/02 08:06:56;;;;;;;30.57;16.87;;;1.60;99.90;;;;;;5068890;28;20455;-74
2021/01/02 08:09:23;;;;;;;27.40;16.73;;;1.60;99.90;;;;;;5068907;28;20797;-74
2021/01/02 08:11:58;;;;;;;39.50;19.37;;;1.60;99.90;;;;;;5069226;28;20871;-74
2021/01/02 08:14:26;;;;;;;38.60;19.20;;;1.60;99.90;;;;;;5068998;28;20490;-74
2021/01/02 08:17:02;;;;;;;34.97;18.17;;;1.50;99.90;;;;;;5068763;28;20455;-74
2021/01/02 08:19:31;;;;;;;36.63;21.63;;;1.60;99.90;;;;;;5069115;28;20522;-74
2021/01/02 08:21:59;;;;;;;33.13;17.80;;;1.60;99.90;;;;;;5068944;28;20427;-74
2021/01/02 08:24:25;;;;;;;33.40;18.70;;;1.60;99.90;;;;;;5069029;28;20443;-74
2021/01/02 08:26:52;;;;;;;36.23;20.90;;;1.60;99.90;;;;;;5068498;28;20458;-74
2021/01/02 08:29:19;;;;;;;35.50;20.30;;;1.60;99.90;;;;;;5061896;28;20494;-74
2021/01/02 08:31:51;;;;;;;40.10;20.07;;;1.70;99.90;;;;;;5061387;28;20444;-74
2021/01/02 08:34:34;;;;;;;37.70;20.30;;;1.70;99.90;;;;;;5071855;28;20423;-74
2021/01/02 08:37:04;;;;;;;38.80;20.73;;;1.70;99.90;;;;;;5076306;28;20880;-74
2021/01/02 08:39:31;;;;;;;40.07;20.73;;;1.70;99.90;;;;;;5070454;28;20481;-74
2021/01/02 08:41:59;;;;;;;46.63;20.07;;;1.80;99.90;;;;;;5067845;28;20805;-74
2021/01/02 08:44:32;;;;;;;47.67;24.13;;;1.80;99.90;;;;;;5063925;28;20432;-74
2021/01/02 08:46:59;;;;;;;43.53;24.00;;;1.80;99.90;;;;;;5067979;28;20967;-74
2021/01/02 08:49:34;;;;;;;43.40;25.17;;;1.90;99.90;;;;;;5068084;28;20450;-74
2021/01/02 08:52:14;;;;;;;50.07;22.57;;;1.90;99.90;;;;;;5063085;28;20438;-74
2021/01/02 08:54:41;;;;;;;45.70;22.67;;;2.00;99.90;;;;;;5050415;28;20528;-74
2021/01/02 08:57:24;;;;;;;39.80;23.00;;;1.90;99.90;;;;;;5048902;28;20513;-74
2021/01/02 08:59:50;;;;;;;40.53;23.53;;;1.80;99.90;;;;;;5062347;28;20431;-74
2021/01/02 09:02:17;;;;;;;46.30;23.20;;;1.90;99.90;;;;;;5082465;28;20507;-74
2021/01/02 09:05:04;;;;;;;51.60;25.40;;;1.90;99.90;;;;;;5078178;28;20446;-74
2021/01/02 09:07:31;;;;;;;53.93;24.50;;;1.80;99.90;;;;;;5074896;28;20504;-74
2021/01/02 09:10:19;;;;;;;44.23;24.13;;;1.90;99.90;;;;;;5081314;28;20430;-74
2021/01/02 09:13:06;;;;;;;48.80;25.30;;;2.00;99.90;;;;;;5071059;28;20544;-73
2021/01/02 09:15:50;;;;;;;48.47;22.80;;;2.00;99.90;;;;;;5073196;28;20577;-76
2021/01/02 09:18:18;;;;;;;48.10;27.67;;;2.00;99.90;;;;;;5071551;28;20442;-74
2021/01/02 09:20:46;;;;;;;45.57;24.30;;;2.00;99.90;;;;;;5071792;28;20273;-74
2021/01/02 09:23:12;;;;;;;47.30;22.57;;;2.10;99.90;;;;;;5072232;28;20440;-74
2021/01/02 09:25:40;;;;;;;43.77;23.00;;;2.20;99.90;;;;;;5079764;28;20453;-74
2021/01/02 09:28:12;;;;;;;40.87;21.97;;;2.30;99.90;;;;;;5089320;28;20462;-74
2021/01/02 09:30:39;;;;;;;37.60;20.30;;;2.40;99.90;;;;;;5086937;28;20917;-74
2021/01/02 09:33:05;;;;;;;36.63;21.47;;;2.50;99.90;;;;;;5085443;28;20446;-76
2021/01/02 09:35:32;;;;;;;40.70;21.90;;;2.60;99.90;;;;;;5086326;28;20438;-78
2021/01/02 09:37:59;;;;;;;32.03;18.43;;;2.60;99.90;;;;;;5073022;28;20493;-78
2021/01/02 09:40:27;;;;;;;32.67;20.43;;;2.50;99.90;;;;;;5078161;28;20454;-75
2021/01/02 09:42:54;;;;;;;34.57;19.30;;;2.40;99.90;;;;;;5073400;28;20436;-76
2021/01/02 09:45:20;;;;;;;31.70;19.00;;;2.30;99.90;;;;;;5075925;28;20443;-78
2021/01/02 09:47:47;;;;;;;35.50;21.03;;;2.20;99.90;;;;;;5072411;28;20485;-76
2021/01/02 09:50:14;;;;;;;35.63;21.60;;;2.10;99.90;;;;;;5072553;28;20439;-76
2021/01/02 09:52:40;;;;;;;39.80;22.23;;;2.10;99.90;;;;;;5080039;28;20918;-77
2021/01/02 09:55:08;;;;;;;40.70;21.30;;;2.20;99.90;;;;;;5077177;28;20934;-77
2021/01/02 09:57:35;;;;;;;36.57;22.50;;;2.30;99.90;;;;;;5078957;28;20490;-79
2021/01/02 10:00:05;;;;;;;40.37;21.27;;;2.40;99.90;;;;;;5073892;28;20458;-76
2021/01/02 10:02:31;;;;;;;37.63;21.03;;;2.40;99.90;;;;;;5080983;28;20474;-79
2021/01/02 10:04:58;;;;;;;31.63;20.63;;;2.40;99.90;;;;;;5076253;28;20439;-76
2021/01/02 10:07:24;;;;;;;34.87;22.07;;;2.50;99.90;;;;;;5071525;28;20451;-78
2021/01/02 10:09:51;;;;;;;36.03;21.57;;;2.50;99.90;;;;;;5070971;28;20497;-78
2021/01/02 10:12:19;;;;;;;31.70;19.70;;;2.70;99.90;;;;;;5073848;28;20447;-79
2021/01/02 10:14:47;;;;;;;31.93;18.60;;;2.90;99.90;;;;;;5090996;28;20823;-79
2021/01/02 10:17:15;;;;;;;32.70;21.23;;;3.10;99.90;;;;;;5084068;28;20493;-75
2021/01/02 10:19:43;;;;;;;29.50;18.43;;;3.20;99.90;;;;;;5081858;28;20431;-74
2021/01/02 10:22:10;;;;;;;29.07;18.77;;;3.30;99.90;;;;;;5074756;28;20455;-74
2021/01/02 10:24:37;;;;;;;27.83;18.03;;;3.40;99.90;;;;;;5076263;28;20446;-76
2021/01/02 10:27:05;;;;;;;31.97;19.10;;;3.30;99.90;;;;;;5068999;28;20898;-77
2021/01/02 10:29:32;;;;;;;28.20;19.00;;;3.40;99.90;;;;;;5076168;28;20777;-78
2021/01/02 10:32:00;;;;;;;28.80;17.83;;;3.60;99.90;;;;;;5084224;28;20803;-74
2021/01/02 10:34:27;;;;;;;29.03;18.47;;;3.70;99.90;;;;;;5093307;22;20584;-71
2021/01/02 10:36:54;;;;;;;26.20;16.50;;;3.90;99.90;;;;;;5059644;28;20451;-71
2021/01/02 10:39:21;;;;;;;26.40;17.90;;;4.00;99.90;;;;;;5053595;28;20596;-71
2021/01/02 10:41:48;;;;;;;25.07;18.17;;;4.10;99.90;;;;;;5068020;28;20570;-71
2021/01/02 10:44:15;;;;;;;23.90;17.63;;;4.20;99.90;;;;;;5069205;28;20451;-73
2021/01/02 10:46:46;;;;;;;27.10;17.43;;;4.00;99.90;;;;;;5057409;28;20490;-72
2021/01/02 10:49:15;;;;;;;28.23;19.30;;;3.90;99.90;;;;;;5047502;28;21049;-72
2021/01/02 10:51:42;;;;;;;22.87;16.30;;;3.90;99.90;;;;;;5054592;28;20492;-72
2021/01/02 10:54:09;;;;;;;25.60;16.77;;;3.90;99.90;;;;;;5059013;28;21104;-72
2021/01/02 10:56:36;;;;;;;22.60;16.30;;;3.70;99.90;;;;;;5059610;28;20543;-73
2021/01/02 10:59:03;;;;;;;24.37;16.10;;;3.50;99.90;;;;;;5062481;28;20486;-73
2021/01/02 11:01:29;;;;;;;19.33;14.33;;;3.50;99.90;;;;;;5066984;28;20475;-71
2021/01/02 11:03:56;;;;;;;24.00;17.20;;;3.30;99.90;;;;;;5061356;28;20481;-71
2021/01/02 11:06:23;;;;;;;22.47;16.20;;;3.40;99.90;;;;;;5053448;28;20483;-71
2021/01/02 11:08:50;;;;;;;23.93;16.60;;;3.40;99.90;;;;;;5061061;28;20456;-72
2021/01/02 11:11:20;;;;;;;23.93;15.30;;;3.30;99.90;;;;;;5064319;28;20968;-72
2021/01/02 11:13:47;;;;;;;23.53;16.07;;;3.20;99.90;;;;;;5065048;28;20546;-72
2021/01/02 11:16:14;;;;;;;22.63;16.50;;;3.10;99.90;;;;;;5066352;28;20451;-72
2021/01/02 11:18:40;;;;;;;22.97;15.20;;;3.10;99.90;;;;;;5057822;28;20599;-70
2021/01/02 11:21:10;;;;;;;25.20;17.50;;;3.10;99.90;;;;;;5064487;28;20548;-71
2021/01/02 11:23:37;;;;;;;27.90;18.10;;;3.20;99.90;;;;;;5067176;28;20434;-70
2021/01/02 11:26:09;;;;;;;21.20;15.00;;;3.20;99.90;;;;;;5066203;28;21316;-70
2021/01/02 11:28:36;;;;;;;22.03;16.43;;;3.20;99.90;;;;;;5057663;28;20448;-70
2021/01/02 11:31:02;;;;;;;25.83;17.37;;;3.30;99.90;;;;;;5061626;28;20972;-71
2021/01/02 11:33:29;;;;;;;25.10;16.00;;;3.40;99.90;;;;;;5066146;28;20446;-70
2021/01/02 11:35:56;;;;;;;21.80;14.10;;;3.60;99.90;;;;;;5060189;28;20439;-71
2021/01/02 11:38:22;;;;;;;21.10;15.70;;;3.50;99.90;;;;;;5054532;28;20597;-71
2021/01/02 11:40:51;;;;;;;22.20;14.10;;;3.50;99.90;;;;;;5054333;28;20467;-70
2021/01/02 11:43:17;;;;;;;22.30;15.83;;;3.40;99.90;;;;;;5065933;28;20534;-72
2021/01/02 11:45:45;;;;;;;24.07;15.23;;;3.20;99.90;;;;;;5063751;28;20452;-73
2021/01/02 11:48:13;;;;;;;23.63;16.50;;;3.10;99.90;;;;;;5065838;28;20534;-70
2021/01/02 11:50:40;;;;;;;23.43;15.50;;;3.20;99.90;;;;;;5058488;28;20480;-72
2021/01/02 11:53:06;;;;;;;24.00;16.27;;;3.20;99.90;;;;;;5061215;28;20447;-70
2021/01/02 11:55:32;;;;;;;23.37;15.77;;;3.10;99.90;;;;;;5051196;28;20454;-70
2021/01/02 11:58:00;;;;;;;24.90;17.53;;;3.20;99.90;;;;;;5052190;28;20615;-72
2021/01/02 12:00:27;;;;;;;21.63;14.87;;;3.30;99.90;;;;;;5056865;28;20959;-71
2021/01/02 12:02:53;;;;;;;18.87;14.90;;;3.40;99.90;;;;;;5051004;28;20439;-70
2021/01/02 12:05:20;;;;;;;18.87;14.17;;;3.20;99.90;;;;;;5058357;28;20535;-72
2021/01/02 12:07:46;;;;;;;25.57;14.50;;;3.10;99.90;;;;;;5049365;28;21011;-72
2021/01/02 12:10:13;;;;;;;23.73;16.10;;;3.10;99.90;;;;;;5056373;28;20476;-72
2021/01/02 12:12:39;;;;;;;34.97;21.37;;;3.10;99.90;;;;;;5055628;28;20809;-71
2021/01/02 12:15:08;;;;;;;26.80;17.07;;;3.20;99.90;;;;;;5062560;28;20554;-71
2021/01/02 12:17:35;;;;;;;23.43;15.30;;;3.40;99.90;;;;;;5051667;28;20570;-71
2021/01/02 12:20:02;;;;;;;22.60;16.57;;;3.50;99.90;;;;;;5060221;28;20955;-72
2021/01/02 12:22:30;;;;;;;22.47;15.47;;;3.60;99.90;;;;;;5051354;28;20482;-71
2021/01/02 12:24:56;;;;;;;21.40;15.53;;;3.80;99.90;;;;;;5066108;28;20478;-72
2021/01/02 12:27:23;;;;;;;22.63;16.27;;;3.90;99.90;;;;;;5052972;28;21138;-72
2021/01/02 12:29:49;;;;;;;24.40;16.10;;;3.90;99.90;;;;;;5054403;28;20521;-71
2021/01/02 12:32:16;;;;;;;20.77;15.87;;;4.00;99.90;;;;;;5054890;28;21115;-72
2021/01/02 12:34:44;;;;;;;21.13;16.57;;;4.00;99.90;;;;;;5053967;28;20970;-72
2021/01/02 12:37:13;;;;;;;21.33;15.57;;;4.10;99.90;;;;;;5048787;28;20451;-72
2021/01/02 12:39:42;;;;;;;22.70;15.80;;;4.20;99.90;;;;;;5055577;28;20483;-72
2021/01/02 12:42:09;;;;;;;22.40;16.13;;;4.20;99.90;;;;;;5058811;28;20550;-72
2021/01/02 12:44:36;;;;;;;21.77;15.07;;;4.20;99.90;;;;;;5054376;28;20456;-72
2021/01/02 12:47:06;;;;;;;21.80;17.27;;;4.30;99.90;;;;;;5047038;28;20956;-72
2021/01/02 12:49:33;;;;;;;21.80;15.67;;;4.30;99.90;;;;;;5058735;28;20444;-72
2021/01/02 12:52:01;;;;;;;23.80;17.77;;;4.20;99.90;;;;;;5046916;28;20472;-71